Time;durP1;ratioP1;P1;durP2;ratioP2;P2;SDS_P1;SDS_P2;PMS_P1;PMS_P2;Temp;Humidity;BMP_temperature;BMP_pressure;BME280_temperature;BME280_humidity;BME280_pressure;Samples;Min_cycle;Max_cycle;Signal;HPM_P1;HPM_P2
2024/02/19 00:01:30;;;;;;;7.93;5.43;;;;;;;12.77;90.28;101243.91;5032094;27;98757;-76
2024/02/19 00:03:58;;;;;;;7.40;5.63;;;;;;;12.70;90.71;101249.47;5037121;27;96910;-77
2024/02/19 00:06:25;;;;;;;8.10;5.82;;;;;;;12.65;90.82;101246.13;5031953;27;97276;-77
2024/02/19 00:08:51;;;;;;;7.88;5.55;;;;;;;12.74;90.66;101248.44;5029224;27;101272;-77
2024/02/19 00:11:18;;;;;;;13.48;6.47;;;;;;;12.62;91.11;101246.22;5033766;27;97618;-77
2024/02/19 00:13:45;;;;;;;9.60;6.07;;;;;;;12.57;90.93;101240.25;5027151;27;97533;-69
2024/02/19 00:16:11;;;;;;;7.68;5.63;;;;;;;12.47;91.75;101239.69;5031300;27;97153;-70
2024/02/19 00:18:38;;;;;;;7.40;5.78;;;;;;;12.45;92.01;101233.59;5033811;27;99391;-69
2024/02/19 00:21:06;;;;;;;7.57;5.80;;;;;;;12.78;91.09;101232.38;5037761;27;98933;-70
2024/02/19 00:23:33;;;;;;;6.97;5.85;;;;;;;12.64;90.59;101213.44;5030042;27;97600;-70
2024/02/19 00:26:01;;;;;;;7.97;5.85;;;;;;;12.79;90.85;101217.34;5032634;27;96904;-70
2024/02/19 00:28:28;;;;;;;6.57;5.53;;;;;;;12.76;89.82;101212.13;5035050;27;99288;-70
2024/02/19 00:30:54;;;;;;;11.23;5.40;;;;;;;12.71;90.58;101211.44;5031906;27;98821;-70
2024/02/19 00:33:21;;;;;;;8.07;5.20;;;;;;;12.71;90.26;101209.66;5030522;27;97536;-70
2024/02/19 00:35:48;;;;;;;7.13;4.82;;;;;;;12.84;89.90;101211.84;5030342;27;96749;-70
2024/02/19 00:38:15;;;;;;;6.57;5.30;;;;;;;12.72;90.08;101205.22;5029380;27;99243;-70
2024/02/19 00:40:42;;;;;;;8.07;4.95;;;;;;;12.78;89.76;101208.50;5026826;27;98822;-71
2024/02/19 00:43:08;;;;;;;6.13;5.05;;;;;;;12.57;90.55;101200.47;5026696;27;97215;-69
2024/02/19 00:45:35;;;;;;;9.35;5.28;;;;;;;12.73;89.81;101197.19;5024548;27;97240;-69
2024/02/19 00:48:01;;;;;;;7.85;5.28;;;;;;;12.65;89.98;101193.13;5034079;27;97670;-69
2024/02/19 00:50:27;;;;;;;7.80;4.85;;;;;;;12.62;90.50;101186.13;5030714;27;99122;-69
2024/02/19 00:52:54;;;;;;;5.90;4.57;;;;;;;12.75;89.88;101187.41;5030571;27;97050;-69
2024/02/19 00:55:22;;;;;;;7.10;4.93;;;;;;;12.86;88.74;101180.84;5030319;27;97492;-69
2024/02/19 00:57:48;;;;;;;7.10;5.10;;;;;;;12.85;88.89;101179.97;5027323;27;99592;-69
2024/02/19 01:00:16;;;;;;;6.28;4.75;;;;;;;13.00;88.22;101171.41;5035192;27;98743;-69
2024/02/19 01:02:42;;;;;;;6.45;4.55;;;;;;;13.09;87.85;101164.88;5029069;27;96818;-70
2024/02/19 01:05:09;;;;;;;7.38;5.00;;;;;;;12.93;87.53;101166.44;5028658;27;96921;-69
2024/02/19 01:07:35;;;;;;;7.70;4.70;;;;;;;12.90;88.40;101171.84;5032465;27;99063;-69
2024/02/19 01:10:01;;;;;;;5.47;4.45;;;;;;;12.63;88.68;101161.34;5025574;27;101568;-69
2024/02/19 01:12:29;;;;;;;8.65;4.97;;;;;;;12.79;88.60;101161.66;5020650;27;97909;-70
2024/02/19 01:14:56;;;;;;;9.30;5.13;;;;;;;12.66;88.84;101155.06;5032189;27;98448;-70
2024/02/19 01:17:22;;;;;;;6.38;4.40;;;;;;;12.55;90.16;101155.47;5036019;27;98898;-71
2024/02/19 01:19:48;;;;;;;5.43;3.97;;;;;;;12.82;88.98;101150.91;5029063;27;99257;-69
2024/02/19 01:22:15;;;;;;;7.97;5.47;;;;;;;12.83;88.11;101151.78;5030542;27;99766;-69
2024/02/19 01:24:41;;;;;;;6.00;4.53;;;;;;;12.80;88.58;101149.25;5029899;27;97365;-69
2024/02/19 01:27:07;;;;;;;9.85;4.88;;;;;;;12.68;88.62;101139.94;5033906;27;99160;-69
2024/02/19 01:29:35;;;;;;;5.93;3.95;;;;;;;12.77;88.72;101139.63;5029035;27;98755;-69
2024/02/19 01:32:01;;;;;;;8.77;4.45;;;;;;;13.04;87.78;101132.38;5029605;27;97096;-70
2024/02/19 01:34:29;;;;;;;5.43;4.47;;;;;;;12.81;88.37;101135.03;5025560;27;98669;-71
2024/02/19 01:36:57;;;;;;;5.40;4.00;;;;;;;13.00;87.51;101128.97;5028876;27;99452;-69
2024/02/19 01:39:23;;;;;;;5.05;4.00;;;;;;;13.00;87.50;101128.97;5028268;27;98783;-69
2024/02/19 01:41:50;;;;;;;5.35;3.92;;;;;;;13.01;86.89;101122.75;5026502;27;98412;-69
2024/02/19 01:44:17;;;;;;;4.38;3.85;;;;;;;13.03;87.03;101120.03;5025050;27;97020;-69
2024/02/19 01:46:46;;;;;;;5.25;3.85;;;;;;;12.90;87.07;101119.66;5025088;27;99363;-69
2024/02/19 01:49:13;;;;;;;4.45;3.83;;;;;;;12.98;86.83;101120.22;5030321;27;97553;-70
2024/02/19 01:51:41;;;;;;;4.32;3.40;;;;;;;12.76;88.12;101112.22;5030217;27;97044;-69
2024/02/19 01:54:10;;;;;;;4.28;3.67;;;;;;;12.93;87.21;101116.88;5030167;27;97876;-70
2024/02/19 01:56:38;;;;;;;4.72;3.30;;;;;;;12.98;86.91;101106.97;5023477;27;99175;-71
2024/02/19 01:59:07;;;;;;;5.18;3.83;;;;;;;13.00;86.83;101097.13;5028104;27;99870;-69
2024/02/19 02:01:37;;;;;;;3.78;3.35;;;;;;;12.86;87.90;101107.44;5035331;27;96814;-69
2024/02/19 02:04:06;;;;;;;3.75;3.30;;;;;;;12.83;87.59;101099.59;5032625;27;97589;-70
2024/02/19 02:06:33;;;;;;;5.05;3.47;;;;;;;12.86;87.50;101104.78;5032495;27;99130;-70
2024/02/19 02:08:59;;;;;;;3.45;2.75;;;;;;;12.92;87.65;101107.22;5028846;27;98805;-69
2024/02/19 02:11:26;;;;;;;3.67;3.05;;;;;;;13.21;86.37;101092.78;5027488;27;98512;-69
2024/02/19 02:13:52;;;;;;;4.07;2.90;;;;;;;12.99;86.59;101100.75;5031669;27;96957;-70
2024/02/19 02:16:24;;;;;;;4.03;3.42;;;;;;;13.00;86.94;101091.81;5024641;27;98988;-70
2024/02/19 02:18:51;;;;;;;4.18;3.00;;;;;;;13.15;86.23;101093.91;5035004;27;99112;-69
2024/02/19 02:21:18;;;;;;;3.90;2.92;;;;;;;13.42;85.07;101085.75;5032491;27;97001;-70
2024/02/19 02:23:45;;;;;;;5.50;3.20;;;;;;;13.05;86.59;101079.25;5036682;27;96966;-70
2024/02/19 02:26:12;;;;;;;9.15;3.17;;;;;;;13.05;87.07;101087.22;5037543;27;103251;-69
2024/02/19 02:28:39;;;;;;;4.78;3.65;;;;;;;12.88;88.79;101078.19;5037189;27;98860;-69
2024/02/19 02:31:06;;;;;;;6.68;3.30;;;;;;;12.70;89.54;101082.44;5025670;27;97037;-71
2024/02/19 02:33:32;;;;;;;5.38;3.30;;;;;;;12.77;90.34;101075.97;5023326;27;98655;-70
2024/02/19 02:35:59;;;;;;;3.72;3.22;;;;;;;12.72;90.71;101070.00;5026309;27;98927;-69
2024/02/19 02:38:26;;;;;;;6.68;3.53;;;;;;;12.69;91.08;101086.88;5029017;27;99341;-70
2024/02/19 02:40:53;;;;;;;4.55;3.25;;;;;;;12.74;91.18;101076.09;5027179;27;97599;-69
2024/02/19 02:43:19;;;;;;;4.43;2.53;;;;;;;12.92;90.45;101072.72;5031239;27;97276;-69
2024/02/19 02:45:47;;;;;;;4.28;3.05;;;;;;;12.94;90.71;101062.91;5027033;27;96914;-70
2024/02/19 02:48:13;;;;;;;5.95;3.08;;;;;;;12.74;91.01;101070.78;5035244;27;99219;-70
2024/02/19 02:50:40;;;;;;;4.47;3.40;;;;;;;12.68;92.05;101068.38;5032188;27;96963;-72
2024/02/19 02:53:06;;;;;;;5.15;3.30;;;;;;;12.65;92.34;101065.84;5032640;27;97173;-70
2024/02/19 02:55:33;;;;;;;4.63;2.92;;;;;;;12.71;91.94;101065.59;5031031;27;101108;-70
2024/02/19 02:58:00;;;;;;;5.55;3.15;;;;;;;12.66;92.51;101055.19;5033555;27;97625;-70
2024/02/19 03:00:26;;;;;;;5.05;2.92;;;;;;;12.26;94.70;101062.94;5029825;27;96863;-70
2024/02/19 03:02:54;;;;;;;4.47;3.00;;;;;;;12.46;94.02;101057.75;5031150;27;96921;-69
2024/02/19 03:05:20;;;;;;;4.40;3.00;;;;;;;12.64;93.16;101048.22;5030535;27;102015;-69
2024/02/19 03:07:46;;;;;;;5.95;2.97;;;;;;;12.74;92.84;101052.22;5022991;27;98706;-70
2024/02/19 03:10:13;;;;;;;6.20;3.10;;;;;;;12.77;92.36;101049.47;5034807;27;96859;-69
2024/02/19 03:12:39;;;;;;;6.80;3.15;;;;;;;12.40;93.91;101041.22;5033908;27;97257;-68
2024/02/19 03:15:06;;;;;;;4.03;3.20;;;;;;;12.68;93.12;101044.50;5025250;27;98983;-69
2024/02/19 03:17:33;;;;;;;3.10;2.80;;;;;;;12.68;92.57;101044.50;5034553;27;98776;-69
2024/02/19 03:20:04;;;;;;;3.55;2.70;;;;;;;12.33;94.96;101037.94;5029522;27;96780;-70
2024/02/19 03:22:30;;;;;;;2.83;2.53;;;;;;;12.35;95.27;101036.94;5031759;27;96862;-69
2024/02/19 03:24:57;;;;;;;4.15;3.17;;;;;;;12.26;95.56;101036.44;5030885;27;98050;-69
2024/02/19 03:27:23;;;;;;;2.97;2.33;;;;;;;12.42;95.33;101039.34;5029481;27;98950;-69
2024/02/19 03:29:51;;;;;;;3.20;2.70;;;;;;;12.08;97.23;101037.97;5034847;27;96808;-68
2024/02/19 03:32:17;;;;;;;3.05;2.40;;;;;;;12.35;96.37;101039.59;5031107;27;96917;-70
2024/02/19 03:34:43;;;;;;;2.22;2.03;;;;;;;12.27;96.20;101041.66;5031798;27;99377;-69
2024/02/19 03:37:12;;;;;;;3.35;2.60;;;;;;;11.81;98.11;101044.31;5037169;27;99307;-69
2024/02/19 03:39:38;;;;;;;3.05;2.40;;;;;;;12.00;98.07;101041.84;5037211;27;96779;-69
2024/02/19 03:42:05;;;;;;;2.47;2.25;;;;;;;12.25;97.53;101045.31;5033790;27;96990;-69
2024/02/19 03:44:32;;;;;;;3.75;1.95;;;;;;;12.03;98.13;101039.06;5025448;27;101486;-69
2024/02/19 03:46:58;;;;;;;3.03;2.50;;;;;;;12.35;97.07;101036.06;5032714;27;99164;-69
2024/02/19 03:49:25;;;;;;;2.10;1.67;;;;;;;11.82;98.59;101035.41;5032866;27;98793;-69
2024/02/19 03:51:51;;;;;;;2.17;1.60;;;;;;;11.99;98.49;101040.97;5032047;27;96834;-70
2024/02/19 03:54:19;;;;;;;3.10;1.63;;;;;;;11.75;100.00;101045.34;5030594;27;98940;-70
2024/02/19 03:56:45;;;;;;;1.50;1.40;;;;;;;11.92;99.49;101042.13;5035513;27;99102;-69
2024/02/19 03:59:12;;;;;;;1.38;1.27;;;;;;;11.82;100.00;101046.88;5030694;27;96849;-69
2024/02/19 04:01:38;;;;;;;2.85;1.48;;;;;;;11.65;100.00;101043.94;5028361;27;97278;-69
2024/02/19 04:04:05;;;;;;;1.83;0.70;;;;;;;11.48;100.00;101052.47;5037681;27;98263;-69
2024/02/19 04:06:31;;;;;;;2.45;1.25;;;;;;;11.34;100.00;101051.19;5028497;27;99326;-70
2024/02/19 04:08:58;;;;;;;1.50;1.20;;;;;;;11.40;100.00;101053.63;5034780;27;96791;-69
2024/02/19 04:11:25;;;;;;;2.67;1.15;;;;;;;12.07;100.00;101057.47;5028122;27;96927;-70
2024/02/19 04:13:52;;;;;;;1.27;1.02;;;;;;;12.40;98.26;101051.81;5027227;27;99248;-69
2024/02/19 04:16:18;;;;;;;2.13;1.00;;;;;;;12.16;98.05;101065.06;5031552;27;98741;-70
2024/02/19 04:18:44;;;;;;;1.67;1.00;;;;;;;12.11;99.01;101064.34;5031976;27;97138;-69
2024/02/19 04:21:11;;;;;;;1.20;1.10;;;;;;;12.22;98.27;101061.31;5030992;27;97011;-69
2024/02/19 04:23:37;;;;;;;1.27;1.17;;;;;;;12.03;98.80;101068.19;5031015;27;101793;-69
2024/02/19 04:26:04;;;;;;;1.20;1.10;;;;;;;12.25;98.41;101072.66;5031057;27;99062;-69
2024/02/19 04:28:32;;;;;;;1.77;0.95;;;;;;;12.23;97.83;101071.84;5032098;27;97966;-69
2024/02/19 04:30:58;;;;;;;1.33;1.23;;;;;;;12.60;94.93;101070.47;5030380;27;96743;-69
2024/02/19 04:33:24;;;;;;;1.52;1.23;;;;;;;12.92;93.25;101074.50;5030156;27;99117;-69
2024/02/19 04:35:51;;;;;;;3.00;1.27;;;;;;;13.09;91.80;101072.91;5029424;27;98828;-70
2024/02/19 04:38:17;;;;;;;1.25;1.02;;;;;;;13.01;91.24;101075.00;5031443;27;96697;-69
2024/02/19 04:40:43;;;;;;;0.80;0.80;;;;;;;13.02;91.09;101074.06;5027439;27;98485;-69
2024/02/19 04:43:10;;;;;;;0.98;0.98;;;;;;;13.03;90.85;101082.91;5030969;27;98923;-70
2024/02/19 04:45:37;;;;;;;1.02;0.93;;;;;;;13.12;89.81;101090.50;5030644;27;98211;-70
2024/02/19 04:48:04;;;;;;;0.70;0.70;;;;;;;13.23;88.86;101092.72;5031851;27;98144;-70
2024/02/19 04:50:30;;;;;;;1.10;0.73;;;;;;;13.30;89.25;101092.44;5028953;27;98755;-70
2024/02/19 04:52:57;;;;;;;0.90;0.88;;;;;;;12.93;88.59;101098.28;5029962;27;101237;-69
2024/02/19 04:55:23;;;;;;;1.35;0.60;;;;;;;12.98;88.99;101106.97;5028443;27;99573;-70
2024/02/19 04:57:50;;;;;;;0.88;0.70;;;;;;;13.14;88.14;101108.09;5031895;27;96681;-70
2024/02/19 05:00:16;;;;;;;1.75;0.73;;;;;;;13.32;86.92;101106.50;5027779;27;97969;-70
2024/02/19 05:02:44;;;;;;;0.68;0.68;;;;;;;13.24;86.99;101118.34;5027952;27;101409;-69
2024/02/19 05:05:10;;;;;;;1.10;1.00;;;;;;;13.31;86.58;101130.44;5026027;27;99090;-69
2024/02/19 05:07:37;;;;;;;1.75;1.10;;;;;;;13.30;85.67;101118.09;5030464;27;96808;-70
2024/02/19 05:10:04;;;;;;;1.15;1.05;;;;;;;13.38;85.28;101121.31;5026574;27;98099;-69
2024/02/19 05:12:31;;;;;;;1.08;0.98;;;;;;;13.33;85.19;101133.88;5029963;27;98539;-70
2024/02/19 05:14:57;;;;;;;0.90;0.90;;;;;;;13.32;85.63;101142.78;5019333;27;98866;-68
2024/02/19 05:17:23;;;;;;;1.17;1.10;;;;;;;13.22;85.73;101141.41;5029797;27;99114;-69
2024/02/19 05:19:51;;;;;;;1.40;1.30;;;;;;;12.83;86.58;101135.84;5031252;27;97677;-70
2024/02/19 05:22:18;;;;;;;1.52;1.42;;;;;;;13.09;86.69;101152.50;5036373;27;99226;-69
2024/02/19 05:24:46;;;;;;;2.05;1.95;;;;;;;13.10;85.64;101148.91;5028347;27;98750;-70
2024/02/19 05:27:13;;;;;;;1.80;1.63;;;;;;;12.93;85.53;101156.66;5030024;27;96777;-70
2024/02/19 05:29:39;;;;;;;2.28;1.52;;;;;;;13.06;85.39;101160.56;5034399;27;97057;-70
2024/02/19 05:32:06;;;;;;;1.70;1.60;;;;;;;12.83;86.22;101162.38;5029259;27;98873;-70
2024/02/19 05:34:32;;;;;;;1.67;1.58;;;;;;;12.55;87.02;101170.50;5031664;27;98946;-70
2024/02/19 05:37:00;;;;;;;1.73;1.63;;;;;;;12.36;87.67;101168.53;5033235;27;97766;-69
2024/02/19 05:39:27;;;;;;;1.65;1.55;;;;;;;12.62;87.68;101172.00;5038280;27;97127;-69
2024/02/19 05:41:53;;;;;;;1.98;1.77;;;;;;;12.54;87.03;101174.06;5023681;27;100501;-70
2024/02/19 05:44:20;;;;;;;2.05;1.85;;;;;;;12.73;86.53;101183.09;5026734;27;98956;-69
2024/02/19 05:46:46;;;;;;;1.77;1.67;;;;;;;12.50;87.05;101177.75;5026916;27;96931;-70
2024/02/19 05:49:13;;;;;;;2.63;1.42;;;;;;;12.50;86.38;101183.06;5028533;27;97227;-70
2024/02/19 05:51:41;;;;;;;1.98;1.77;;;;;;;12.42;86.74;101180.69;5026477;27;98946;-68
2024/02/19 05:54:09;;;;;;;1.38;1.27;;;;;;;12.55;85.60;101181.97;5029714;27;99199;-69
2024/02/19 05:56:35;;;;;;;3.70;1.58;;;;;;;12.52;85.33;101187.41;5024219;27;97181;-69
2024/02/19 05:59:01;;;;;;;1.83;1.10;;;;;;;12.46;85.37;101192.06;5030532;27;96925;-69
2024/02/19 06:01:28;;;;;;;1.88;1.27;;;;;;;12.56;84.74;101202.25;5027487;27;101302;-70
2024/02/19 06:03:55;;;;;;;1.85;1.10;;;;;;;12.42;85.50;101199.22;5039901;27;98923;-69
2024/02/19 06:06:21;;;;;;;2.97;0.90;;;;;;;12.42;84.81;101217.78;5029793;27;97047;-69
2024/02/19 06:08:47;;;;;;;1.15;1.05;;;;;;;12.60;84.24;101216.28;5029571;27;96919;-69
2024/02/19 06:11:15;;;;;;;3.65;0.90;;;;;;;12.69;82.85;101207.97;5024747;27;101405;-70
2024/02/19 06:13:41;;;;;;;1.38;0.77;;;;;;;12.75;82.94;101213.03;5027887;27;98902;-69
2024/02/19 06:16:08;;;;;;;1.25;1.08;;;;;;;12.84;82.19;101220.69;5030342;27;97129;-69
2024/02/19 06:18:35;;;;;;;0.50;0.50;;;;;;;12.47;81.75;101220.28;5030102;27;96787;-69
2024/02/19 06:21:01;;;;;;;0.68;0.68;;;;;;;12.88;81.14;101227.59;5029267;27;100209;-71
2024/02/19 06:23:28;;;;;;;0.50;0.50;;;;;;;12.35;81.48;101227.75;5028882;27;98762;-70
2024/02/19 06:25:54;;;;;;;0.50;0.50;;;;;;;12.61;81.39;101241.84;5026136;27;96748;-68
2024/02/19 06:28:21;;;;;;;0.40;0.40;;;;;;;12.46;80.90;101235.34;5024851;27;97342;-69
2024/02/19 06:30:48;;;;;;;0.75;0.40;;;;;;;12.34;82.31;101246.34;5029201;27;99099;-69
2024/02/19 06:33:15;;;;;;;0.47;0.35;;;;;;;12.16;83.58;101249.63;5028865;27;99053;-70
2024/02/19 06:35:42;;;;;;;0.43;0.20;;;;;;;11.92;84.61;101253.97;5029040;27;96780;-69
2024/02/19 06:38:08;;;;;;;0.57;0.30;;;;;;;11.85;85.28;101263.91;5030855;27;98920;-70
2024/02/19 06:40:35;;;;;;;1.95;0.50;;;;;;;11.78;86.71;101266.78;5025546;27;99096;-70
2024/02/19 06:43:01;;;;;;;0.50;0.50;;;;;;;11.76;86.58;101260.66;5030202;27;97630;-69
2024/02/19 06:45:30;;;;;;;0.60;0.40;;;;;;;11.48;87.83;101260.66;5027764;27;96842;-70
2024/02/19 06:47:57;;;;;;;1.25;0.50;;;;;;;11.64;87.73;101264.53;5027263;27;97409;-71
2024/02/19 06:50:23;;;;;;;0.50;0.50;;;;;;;11.69;87.08;101261.75;5028464;27;99365;-70
2024/02/19 06:52:49;;;;;;;5.63;2.22;;;;;;;11.91;86.88;101270.78;5024275;27;99106;-69
2024/02/19 06:55:17;;;;;;;1.60;0.77;;;;;;;11.69;87.23;101267.91;5026546;27;97890;-70
2024/02/19 06:57:44;;;;;;;2.75;0.93;;;;;;;11.72;87.91;101272.25;5030355;27;96935;-70
2024/02/19 07:00:11;;;;;;;4.20;0.98;;;;;;;11.56;88.58;101277.16;5026627;27;98915;-69
2024/02/19 07:02:39;;;;;;;1.58;0.88;;;;;;;11.00;91.27;101270.94;5029328;27;99471;-70
2024/02/19 07:05:07;;;;;;;2.47;1.02;;;;;;;11.27;90.66;101282.47;5021138;27;98520;-70
2024/02/19 07:07:34;;;;;;;2.05;0.93;;;;;;;11.20;91.59;101281.78;5028894;27;96915;-69
2024/02/19 07:10:01;;;;;;;2.00;1.20;;;;;;;11.03;92.57;101286.69;5027720;27;99270;-70
2024/02/19 07:12:28;;;;;;;1.95;1.10;;;;;;;10.56;94.39;101288.91;5029397;27;99021;-70
2024/02/19 07:14:56;;;;;;;0.85;0.85;;;;;;;10.57;96.01;101290.59;5023812;27;98617;-76
2024/02/19 07:17:23;;;;;;;2.03;0.90;;;;;;;10.26;97.69;101297.59;5035299;27;96837;-77
2024/02/19 07:19:51;;;;;;;1.30;0.80;;;;;;;10.88;96.56;101292.44;5037243;27;98931;-76
2024/02/19 07:22:17;;;;;;;2.00;0.80;;;;;;;11.20;94.89;101300.31;5026082;27;98967;-76
2024/02/19 07:24:43;;;;;;;0.80;0.70;;;;;;;11.06;94.32;101298.06;5021813;27;96833;-76
2024/02/19 07:27:10;;;;;;;1.27;0.60;;;;;;;10.93;94.16;101311.66;5032162;27;96888;-76
2024/02/19 07:29:36;;;;;;;3.88;0.60;;;;;;;11.05;93.63;101301.63;5032967;27;98899;-76
2024/02/19 07:32:03;;;;;;;0.80;0.60;;;;;;;11.28;93.15;101297.44;5030703;27;99951;-78
2024/02/19 07:34:29;;;;;;;2.25;0.70;;;;;;;11.75;91.00;101306.63;5025952;27;96832;-76
2024/02/19 07:36:57;;;;;;;0.90;0.60;;;;;;;11.71;90.95;101319.03;5029242;27;97499;-76
2024/02/19 07:39:23;;;;;;;1.20;0.65;;;;;;;11.54;91.23;101318.69;5031077;27;98866;-76
2024/02/19 07:41:49;;;;;;;1.50;0.60;;;;;;;11.77;90.09;101329.47;5031774;27;98826;-76
2024/02/19 07:44:16;;;;;;;0.88;0.40;;;;;;;11.37;91.99;101321.81;5031036;27;98078;-76
2024/02/19 07:46:42;;;;;;;1.17;0.30;;;;;;;11.12;92.38;101326.97;5032279;27;97457;-76
2024/02/19 07:49:09;;;;;;;0.80;0.40;;;;;;;11.40;90.99;101326.19;5031722;27;98895;-76
2024/02/19 07:51:35;;;;;;;1.17;0.50;;;;;;;10.74;94.28;101333.34;5029577;27;102291;-76
2024/02/19 07:54:03;;;;;;;0.70;0.50;;;;;;;11.17;92.93;101335.63;5031425;27;96838;-76
2024/02/19 07:56:29;;;;;;;0.82;0.50;;;;;;;11.41;91.52;101341.16;5031027;27;97303;-76
2024/02/19 07:58:56;;;;;;;1.05;0.60;;;;;;;11.68;89.90;101344.75;5035341;27;98081;-77
2024/02/19 08:01:22;;;;;;;0.80;0.50;;;;;;;11.67;89.02;101337.72;5030903;27;98817;-77
2024/02/19 08:03:49;;;;;;;0.95;0.50;;;;;;;11.58;88.15;101334.44;5028133;27;96949;-77
2024/02/19 08:06:15;;;;;;;0.82;0.40;;;;;;;11.40;89.13;101355.28;5031550;27;96774;-77
2024/02/19 08:08:41;;;;;;;2.28;0.30;;;;;;;11.47;88.93;101363.00;5025406;27;97618;-77
2024/02/19 08:11:09;;;;;;;0.95;0.35;;;;;;;11.44;88.61;101368.38;5034413;27;98867;-78
2024/02/19 08:13:35;;;;;;;0.98;0.30;;;;;;;11.42;87.96;101375.47;5032389;27;98095;-77
2024/02/19 08:16:02;;;;;;;0.40;0.30;;;;;;;11.29;88.82;101378.56;5020967;27;97149;-77
2024/02/19 08:18:28;;;;;;;0.50;0.13;;;;;;;11.43;88.34;101381.63;5022600;27;99237;-77
2024/02/19 08:20:54;;;;;;;0.20;0.20;;;;;;;11.24;88.37;101388.38;5017470;27;98656;-77
2024/02/19 08:23:21;;;;;;;1.58;0.30;;;;;;;11.45;88.25;101417.75;5021387;27;97561;-76
2024/02/19 08:25:48;;;;;;;1.05;0.28;;;;;;;11.29;89.08;101397.06;5015643;27;99047;-76
2024/02/19 08:28:16;;;;;;;0.30;0.30;;;;;;;11.34;89.19;101403.09;5020270;27;99412;-78
2024/02/19 08:30:42;;;;;;;0.70;0.20;;;;;;;11.77;87.69;101423.91;5028777;27;101064;-77
2024/02/19 08:33:08;;;;;;;0.30;0.30;;;;;;;11.58;86.71;101413.84;5030800;27;97766;-77
2024/02/19 08:35:35;;;;;;;0.30;0.20;;;;;;;11.18;87.70;101424.66;5024444;27;96835;-75
2024/02/19 08:38:01;;;;;;;1.38;0.25;;;;;;;11.35;87.33;101428.66;5030908;27;99046;-77
2024/02/19 08:40:27;;;;;;;0.93;0.20;;;;;;;11.88;85.45;101438.56;5029339;27;102221;-77
2024/02/19 08:42:54;;;;;;;1.83;0.30;;;;;;;11.80;83.73;101430.00;5029982;27;96730;-76
2024/02/19 08:45:22;;;;;;;1.02;0.22;;;;;;;11.27;85.16;101431.50;5026968;27;97288;-75
2024/02/19 08:47:48;;;;;;;0.50;0.38;;;;;;;11.41;85.07;101442.56;5031368;27;102392;-75
2024/02/19 08:50:15;;;;;;;1.00;0.30;;;;;;;11.34;84.13;101435.72;5023763;27;99369;-75
2024/02/19 08:52:41;;;;;;;2.90;0.30;;;;;;;11.37;85.58;101451.50;5032014;27;97102;-77
2024/02/19 08:55:10;;;;;;;1.13;0.20;;;;;;;11.12;85.89;101461.00;5028177;27;96790;-77
2024/02/19 08:57:36;;;;;;;3.50;0.40;;;;;;;11.11;86.52;101453.97;5028950;27;98361;-77
2024/02/19 09:00:04;;;;;;;2.90;0.40;;;;;;;11.24;83.95;101446.56;5030168;27;99286;-76
2024/02/19 09:02:32;;;;;;;26.27;1.08;;;;;;;11.38;84.66;101469.09;5029741;27;98678;-76
2024/02/19 09:04:58;;;;;;;1.05;0.30;;;;;;;11.44;82.74;101461.00;5028677;27;96818;-76
2024/02/19 09:07:25;;;;;;;0.47;0.30;;;;;;;10.93;85.18;101468.53;5024643;27;98881;-77
2024/02/19 09:09:51;;;;;;;0.40;0.40;;;;;;;11.15;85.73;101476.81;5023236;27;98918;-76
2024/02/19 09:12:18;;;;;;;1.48;0.30;;;;;;;11.30;84.81;101475.50;5028435;27;97300;-76
2024/02/19 09:14:44;;;;;;;2.42;0.70;;;;;;;11.36;85.47;101489.44;5023537;27;96914;-77
2024/02/19 09:17:13;;;;;;;0.47;0.30;;;;;;;11.87;83.53;101489.81;5028380;27;99071;-77
2024/02/19 09:19:40;;;;;;;1.80;0.68;;;;;;;11.75;83.86;101490.13;5028439;27;98851;-76
2024/02/19 09:22:07;;;;;;;0.82;0.73;;;;;;;11.93;82.90;101488.75;5033767;27;96866;-75
2024/02/19 09:24:33;;;;;;;3.78;0.57;;;;;;;11.77;83.59;101504.22;5022432;27;96862;-77
2024/02/19 09:27:00;;;;;;;3.03;0.30;;;;;;;11.98;82.71;101500.09;5020172;27;101760;-77
2024/02/19 09:29:26;;;;;;;17.30;2.60;;;;;;;12.13;82.56;101506.72;5012471;27;100559;-77
2024/02/19 09:31:53;;;;;;;10.20;0.77;;;;;;;12.48;81.33;101513.56;5014754;27;97485;-78
2024/02/19 09:34:19;;;;;;;5.57;0.50;;;;;;;12.02;84.34;101524.69;5016333;27;98005;-77
2024/02/19 09:36:47;;;;;;;1.45;0.45;;;;;;;11.87;83.73;101526.91;5022050;27;100900;-77
2024/02/19 09:39:13;;;;;;;2.50;0.63;;;;;;;11.79;85.13;101539.47;5024334;27;99252;-77
2024/02/19 09:41:41;;;;;;;4.57;0.57;;;;;;;11.83;83.70;101527.00;5028085;27;97184;-77
2024/02/19 09:44:08;;;;;;;7.10;0.90;;;;;;;11.21;87.03;101534.84;5020687;27;98588;-77
2024/02/19 09:46:35;;;;;;;2.65;0.57;;;;;;;10.70;88.93;101548.41;5030417;27;98924;-78
2024/02/19 09:49:02;;;;;;;1.65;0.70;;;;;;;11.16;88.27;101540.22;5030297;27;99233;-76
2024/02/19 09:51:29;;;;;;;2.38;0.68;;;;;;;11.25;86.60;101549.72;5028753;27;98803;-70
2024/02/19 09:53:58;;;;;;;0.80;0.60;;;;;;;11.39;85.27;101550.22;5022855;27;97342;-70
2024/02/19 09:56:26;;;;;;;2.00;1.20;;;;;;;10.92;85.49;101550.53;5024148;27;98363;-70
2024/02/19 09:58:53;;;;;;;2.42;1.30;;;;;;;10.31;88.29;101567.78;5025373;27;99170;-70
2024/02/19 10:01:21;;;;;;;3.63;1.20;;;;;;;10.47;89.47;101578.91;5026524;27;96794;-70
2024/02/19 10:03:48;;;;;;;2.40;1.45;;;;;;;10.46;87.96;101575.41;5018564;27;97231;-69
2024/02/19 10:06:15;;;;;;;4.43;1.58;;;;;;;10.62;87.68;101581.22;5021137;27;100308;-70
2024/02/19 10:08:41;;;;;;;2.58;1.70;;;;;;;10.72;87.46;101588.91;5018953;27;101144;-69
2024/02/19 10:11:10;;;;;;;4.38;1.70;;;;;;;11.06;86.29;101593.41;5016517;27;99548;-70
2024/02/19 10:13:41;;;;;;;2.85;1.45;;;;;;;11.37;84.43;101589.09;5023763;27;96860;-70
2024/02/19 10:16:09;;;;;;;3.17;1.40;;;;;;;10.88;84.88;101593.84;5015704;27;101117;-69
2024/02/19 10:18:36;;;;;;;1.50;1.38;;;;;;;10.71;86.15;101597.72;5018348;27;99035;-69
2024/02/19 10:21:03;;;;;;;2.40;1.30;;;;;;;10.96;85.45;101600.66;5016570;27;98856;-70
2024/02/19 10:23:29;;;;;;;2.00;1.30;;;;;;;11.19;84.77;101600.13;5029255;27;98096;-69
2024/02/19 10:25:56;;;;;;;3.15;1.08;;;;;;;11.49;84.36;101601.13;5024950;27;98927;-70
2024/02/19 10:28:24;;;;;;;4.00;0.90;;;;;;;11.16;83.90;101605.47;5027235;27;99476;-69
2024/02/19 10:30:51;;;;;;;1.73;1.17;;;;;;;11.59;83.25;101606.16;5027514;27;97218;-69
2024/02/19 10:33:18;;;;;;;2.92;0.95;;;;;;;11.86;82.76;101603.72;5027267;27;96917;-70
2024/02/19 10:35:46;;;;;;;7.80;3.95;;;;;;;11.51;82.53;101602.84;5029000;27;99414;-70
2024/02/19 10:38:13;;;;;;;1.80;1.00;;;;;;;11.65;82.71;101615.72;5025682;27;98278;-70
2024/02/19 10:40:40;;;;;;;1.45;0.95;;;;;;;11.61;82.35;101607.91;5028356;27;96747;-69
2024/02/19 10:43:07;;;;;;;2.55;1.08;;;;;;;11.93;80.88;101605.31;5027025;27;96912;-70
2024/02/19 10:45:34;;;;;;;2.13;1.02;;;;;;;12.25;80.76;101617.63;5025059;27;99245;-70
2024/02/19 10:48:02;;;;;;;2.58;0.60;;;;;;;11.87;79.95;101614.28;5026771;27;99380;-70
2024/02/19 10:50:32;;;;;;;3.35;0.63;;;;;;;11.46;81.29;101612.69;5023324;27;98858;-70
2024/02/19 10:52:59;;;;;;;3.70;0.60;;;;;;;11.62;80.78;101609.66;5021893;27;97100;-70
2024/02/19 10:55:28;;;;;;;2.28;0.30;;;;;;;11.52;81.50;101614.31;5023533;27;98771;-70
2024/02/19 10:57:56;;;;;;;4.47;0.50;;;;;;;11.94;80.68;101617.63;5025335;27;98749;-69
2024/02/19 11:00:25;;;;;;;4.28;0.50;;;;;;;12.15;79.47;101621.44;5028829;27;97129;-69
2024/02/19 11:03:05;;;;;;;3.20;0.88;;;;;;;12.15;78.97;101614.38;5025883;27;96941;-69
2024/02/19 11:05:34;;;;;;;2.50;0.50;;;;;;;12.34;77.66;101614.72;5015852;27;98948;-71
2024/02/19 11:08:01;;;;;;;3.10;0.40;;;;;;;11.97;78.76;101610.47;5019889;27;99351;-69
2024/02/19 11:10:38;;;;;;;8.25;1.08;;;;;;;12.41;78.86;101615.41;5027049;27;96770;-70
2024/02/19 11:13:09;;;;;;;1.58;0.43;;;;;;;12.41;78.87;101615.41;5026904;27;96985;-70
2024/02/19 11:15:41;;;;;;;0.50;0.30;;;;;;;11.76;81.70;101624.28;5031879;27;98915;-70
2024/02/19 11:18:15;;;;;;;2.70;0.50;;;;;;;12.12;81.61;101618.91;5025807;27;99959;-70
2024/02/19 11:20:42;;;;;;;0.10;0.10;;;;;;;11.86;82.22;101627.56;5025831;27;96905;-71
2024/02/19 11:23:14;;;;;;;0.85;0.40;;;;;;;11.64;83.35;101618.41;5025367;27;97636;-71